createdAt,value
2019-05-02T00:00:35.237Z,69.21
2019-05-02T00:01:35.235Z,69.21
2019-05-02T00:02:35.119Z,69.21
2019-05-02T00:03:35.949Z,69.41
2019-05-02T00:04:35.117Z,69.12
2019-05-02T00:05:35.008Z,69.21
2019-05-02T00:06:37.983Z,69.02
2019-05-02T00:07:34.880Z,69.21
2019-05-02T00:08:34.900Z,69.02
2019-05-02T00:09:34.765Z,69.02
2019-05-02T00:10:34.760Z,69.31
2019-05-02T00:11:34.643Z,69.21
2019-05-02T00:12:34.640Z,68.84
2019-05-02T00:13:34.524Z,68.84
2019-05-02T00:14:34.521Z,68.84
2019-05-02T00:15:38.306Z,69.41
2019-05-02T00:16:34.406Z,69.21
2019-05-02T00:17:34.405Z,68.84
2019-05-02T00:18:37.244Z,69.02
2019-05-02T00:19:34.283Z,69.12
2019-05-02T00:20:34.167Z,69.12
2019-05-02T00:21:38.178Z,69.21
2019-05-02T00:22:34.048Z,69.21
2019-05-02T00:23:34.045Z,68.84
2019-05-02T00:24:39.097Z,68.93
2019-05-02T00:25:33.926Z,68.93
2019-05-02T00:26:33.810Z,68.93
2019-05-02T00:27:37.665Z,68.84
2019-05-02T00:28:33.691Z,68.93
2019-05-02T00:29:33.689Z,68.93
2019-05-02T00:30:34.620Z,68.74
2019-05-02T00:31:33.571Z,68.74
2019-05-02T00:32:33.570Z,68.93
2019-05-02T00:33:34.511Z,68.93
2019-05-02T00:34:33.452Z,68.93
2019-05-02T00:35:33.335Z,68.84
2019-05-02T00:36:33.332Z,68.84
2019-05-02T00:37:33.216Z,68.84
2019-05-02T00:38:37.921Z,69.02
2019-05-02T00:39:33.098Z,69.12
2019-05-02T00:40:33.094Z,69.02
2019-05-02T00:41:37.894Z,68.55
2019-05-02T00:42:32.975Z,68.64
2019-05-02T00:43:34.403Z,68.74
2019-05-02T00:44:32.857Z,68.55
2019-05-02T00:45:32.859Z,68.74
2019-05-02T00:46:35.006Z,68.45
2019-05-02T00:47:32.737Z,68.45
2019-05-02T00:48:32.621Z,68.35
2019-05-02T00:49:35.421Z,68.64
2019-05-02T00:50:32.502Z,68.64
2019-05-02T00:51:32.499Z,68.55
2019-05-02T00:52:32.941Z,68.07
2019-05-02T00:53:32.382Z,68.16
2019-05-02T00:54:32.265Z,68.07
2019-05-02T00:55:33.798Z,68.16
2019-05-02T00:56:32.263Z,68.07
2019-05-02T00:57:32.143Z,68.35
2019-05-02T00:58:33.118Z,68.74
2019-05-02T00:59:32.025Z,68.07
2019-05-02T01:00:32.024Z,67.97
2019-05-02T01:01:31.908Z,68.07
2019-05-02T01:02:35.986Z,67.97
2019-05-02T01:03:32.139Z,68.16
2019-05-02T01:04:31.786Z,67.97
2019-05-02T01:05:33.813Z,67.97
2019-05-02T01:06:31.667Z,67.88
2019-05-02T01:07:31.550Z,67.88
2019-05-02T01:08:35.594Z,68.16
2019-05-02T01:09:31.550Z,68.07
2019-05-02T01:10:31.430Z,67.88
2019-05-02T01:11:32.185Z,67.97
2019-05-02T01:12:31.312Z,68.07
2019-05-02T01:13:31.311Z,67.97
2019-05-02T01:14:31.772Z,67.97
2019-05-02T01:15:31.192Z,68.07
2019-05-02T01:16:31.074Z,67.97
2019-05-02T01:17:32.185Z,67.97
2019-05-02T01:18:30.957Z,67.97
2019-05-02T01:19:30.953Z,68.07
2019-05-02T01:20:30.837Z,68.16
2019-05-02T01:21:34.127Z,68.07
2019-05-02T01:22:30.719Z,67.78
2019-05-02T01:23:30.715Z,67.69
2019-05-02T01:24:34.237Z,68.13
2019-05-02T01:25:30.598Z,67.75
2019-05-02T01:26:30.659Z,67.97
2019-05-02T01:27:30.481Z,68.13
2019-05-02T01:28:30.477Z,68.04
2019-05-02T01:29:31.739Z,67.97
2019-05-02T01:30:30.358Z,67.88
2019-05-02T01:31:30.242Z,68.07
2019-05-02T01:32:31.301Z,67.75
2019-05-02T01:33:30.124Z,67.88
2019-05-02T01:34:30.121Z,67.78
2019-05-02T01:35:31.499Z,67.75
2019-05-02T01:36:30.000Z,68.13
2019-05-02T01:37:30.002Z,68.13
2019-05-02T01:38:31.984Z,68.32
2019-05-02T01:39:29.884Z,68.23
2019-05-02T01:40:29.764Z,68.04
2019-05-02T01:41:31.097Z,67.65
2019-05-02T01:42:39.721Z,67.84
2019-05-02T01:43:29.646Z,67.84
2019-05-02T01:44:31.054Z,68.04
2019-05-02T01:45:29.526Z,67.75
2019-05-02T01:46:29.409Z,67.75
2019-05-02T01:47:34.064Z,67.65
2019-05-02T01:48:29.291Z,67.78
2019-05-02T01:49:29.290Z,67.75
2019-05-02T01:50:33.512Z,67.75
2019-05-02T01:51:29.169Z,67.75
2019-05-02T01:52:29.169Z,67.75
2019-05-02T01:53:33.777Z,67.75
2019-05-02T01:54:29.050Z,67.75
2019-05-02T01:55:28.933Z,67.75
2019-05-02T01:56:33.149Z,67.75
2019-05-02T01:57:28.816Z,67.75
2019-05-02T01:58:28.813Z,67.65
2019-05-02T01:59:29.198Z,67.65
2019-05-02T02:00:28.693Z,67.65
2019-05-02T02:01:28.579Z,67.65
2019-05-02T02:02:32.907Z,67.75
2019-05-02T02:03:28.461Z,67.75
2019-05-02T02:04:28.454Z,67.75
2019-05-02T02:05:32.247Z,67.84
2019-05-02T02:06:28.335Z,67.65
2019-05-02T02:07:28.336Z,67.75
2019-05-02T02:08:32.608Z,67.75
2019-05-02T02:09:28.217Z,67.75
2019-05-02T02:10:28.101Z,67.75
2019-05-02T02:11:33.420Z,67.75
2019-05-02T02:12:27.982Z,67.75
2019-05-02T02:13:31.177Z,67.84
2019-05-02T02:14:27.864Z,67.65
2019-05-02T02:15:29.041Z,67.46
2019-05-02T02:16:27.746Z,67.55
2019-05-02T02:17:27.740Z,67.84
2019-05-02T02:18:29.401Z,67.75
2019-05-02T02:19:27.622Z,67.65
2019-05-02T02:20:27.623Z,67.65
2019-05-02T02:21:27.692Z,67.75
2019-05-02T02:22:27.504Z,67.65
2019-05-02T02:23:27.386Z,67.84
2019-05-02T02:24:27.385Z,67.65
2019-05-02T02:25:27.268Z,67.65
2019-05-02T02:26:27.265Z,67.65
2019-05-02T02:27:27.152Z,67.84
2019-05-02T02:28:32.087Z,67.55
2019-05-02T02:29:27.031Z,67.84
2019-05-02T02:30:27.029Z,67.84
2019-05-02T02:31:26.946Z,67.84
2019-05-02T02:32:28.660Z,67.75
2019-05-02T02:33:26.793Z,67.65
2019-05-02T02:34:32.342Z,67.65
2019-05-02T02:35:26.791Z,67.65
2019-05-02T02:36:33.805Z,67.94
2019-05-02T02:37:26.681Z,67.65
2019-05-02T02:38:32.898Z,67.65
2019-05-02T02:39:26.553Z,67.65
2019-05-02T02:40:32.769Z,67.65
2019-05-02T02:41:26.435Z,67.94
2019-05-02T02:42:31.736Z,67.84
2019-05-02T02:43:33.936Z,67.94
2019-05-02T02:44:26.199Z,67.84
2019-05-02T02:45:26.194Z,67.84
2019-05-02T02:46:30.691Z,67.65
2019-05-02T02:47:26.075Z,67.84
2019-05-02T02:48:25.960Z,67.94
2019-05-02T02:49:25.958Z,67.55
2019-05-02T02:50:25.965Z,67.94
2019-05-02T02:51:26.409Z,67.36
2019-05-02T02:52:25.839Z,67.36
2019-05-02T02:53:25.829Z,67.18
2019-05-02T02:54:25.719Z,67.36
2019-05-02T02:55:25.602Z,67.36
2019-05-02T02:56:25.601Z,67.36
2019-05-02T02:57:28.240Z,66.99
2019-05-02T02:58:25.482Z,67.18
2019-05-02T02:59:26.172Z,67.18
2019-05-02T03:00:25.365Z,67.18
2019-05-02T03:01:28.839Z,66.99
2019-05-02T03:02:25.245Z,67.18
2019-05-02T03:03:27.805Z,67.18
2019-05-02T03:04:25.124Z,67.08
2019-05-02T03:05:26.202Z,67.27
2019-05-02T03:06:25.005Z,67.36
2019-05-02T03:07:28.485Z,67.27
2019-05-02T03:08:24.892Z,66.99
2019-05-02T03:09:26.564Z,67.08
2019-05-02T03:10:24.770Z,66.99
2019-05-02T03:11:25.537Z,67.55
2019-05-02T03:12:24.665Z,67.27
2019-05-02T03:13:24.649Z,67.36
2019-05-02T03:14:24.539Z,67.18
2019-05-02T03:15:27.905Z,67.08
2019-05-02T03:16:24.416Z,67.27
2019-05-02T03:17:26.183Z,67.55
2019-05-02T03:18:27.010Z,67.08
2019-05-02T03:19:24.291Z,67.08
2019-05-02T03:20:24.292Z,67.08
2019-05-02T03:21:24.174Z,67.62
2019-05-02T03:22:24.174Z,67.18
2019-05-02T03:23:24.131Z,67.18
2019-05-02T03:24:24.055Z,67.52
2019-05-02T03:25:27.074Z,67.43
2019-05-02T03:26:23.937Z,67.05
2019-05-02T03:27:29.985Z,67.05
2019-05-02T03:28:23.820Z,67.18
2019-05-02T03:29:23.703Z,67.14
2019-05-02T03:30:32.283Z,67.14
2019-05-02T03:31:29.061Z,67.18
2019-05-02T03:32:33.324Z,67.24
2019-05-02T03:33:23.472Z,67.24
2019-05-02T03:34:23.465Z,67.43
2019-05-02T03:35:40.102Z,67.24
2019-05-02T03:36:30.009Z,67.05
2019-05-02T03:37:23.340Z,67.52
2019-05-02T03:38:31.388Z,67.33
2019-05-02T03:39:23.226Z,67.33
2019-05-02T03:40:23.105Z,67.43
2019-05-02T03:41:23.582Z,67.24
2019-05-02T03:42:22.986Z,67.14
2019-05-02T03:43:25.502Z,66.99
2019-05-02T03:44:26.105Z,66.85
2019-05-02T03:45:22.864Z,66.85
2019-05-02T03:46:22.924Z,66.56
2019-05-02T03:47:22.747Z,66.47
2019-05-02T03:48:25.899Z,66.38
2019-05-02T03:49:22.627Z,66.85
2019-05-02T03:50:30.682Z,66.56
2019-05-02T03:51:25.228Z,66.19
2019-05-02T03:52:22.510Z,66.56
2019-05-02T03:53:25.071Z,66.66
2019-05-02T03:54:22.393Z,66.56
2019-05-02T03:55:23.921Z,66.47
2019-05-02T03:56:22.277Z,66.56
2019-05-02T03:57:32.440Z,66.56
2019-05-02T03:58:22.152Z,66.66
2019-05-02T03:59:22.044Z,66.66
2019-05-02T04:00:24.236Z,66.66
2019-05-02T04:01:21.915Z,66.38
2019-05-02T04:02:21.979Z,66.19
2019-05-02T04:03:21.806Z,66.38
2019-05-02T04:04:22.781Z,66.66
2019-05-02T04:05:21.680Z,66.38
2019-05-02T04:06:23.705Z,66.38
2019-05-02T04:07:21.675Z,66.09
2019-05-02T04:08:22.728Z,66.09
2019-05-02T04:09:21.556Z,66.00
2019-05-02T04:10:21.489Z,66.19
2019-05-02T04:11:21.440Z,66.28
2019-05-02T04:12:21.951Z,66.00
2019-05-02T04:13:21.317Z,66.09
2019-05-02T04:14:36.893Z,66.38
2019-05-02T04:15:21.198Z,66.09
2019-05-02T04:16:21.086Z,66.38
2019-05-02T04:17:21.079Z,66.09
2019-05-02T04:18:20.982Z,66.19
2019-05-02T04:19:20.962Z,66.09
2019-05-02T04:20:20.846Z,66.09
2019-05-02T04:21:24.509Z,66.09
2019-05-02T04:22:20.726Z,66.09
2019-05-02T04:23:21.390Z,66.19
2019-05-02T04:24:20.723Z,66.28
2019-05-02T04:25:20.608Z,66.38
2019-05-02T04:26:20.604Z,66.56
2019-05-02T04:27:20.503Z,66.56
2019-05-02T04:28:20.490Z,66.19
2019-05-02T04:29:24.552Z,66.19
2019-05-02T04:30:20.366Z,66.56
2019-05-02T04:31:24.691Z,66.56
2019-05-02T04:32:20.248Z,66.56
2019-05-02T04:33:20.131Z,66.56
2019-05-02T04:34:20.128Z,66.56
2019-05-02T04:35:20.013Z,66.47
2019-05-02T04:36:20.014Z,66.56
2019-05-02T04:37:19.892Z,66.47
2019-05-02T04:38:30.742Z,66.47
2019-05-02T04:39:21.613Z,66.56
2019-05-02T04:40:19.773Z,66.47
2019-05-02T04:41:28.536Z,66.56
2019-05-02T04:42:23.087Z,66.38
2019-05-02T04:43:19.653Z,66.47
2019-05-02T04:44:19.538Z,66.19
2019-05-02T04:45:26.332Z,66.38
2019-05-02T04:46:26.850Z,66.56
2019-05-02T04:47:21.904Z,66.76
2019-05-02T04:48:19.302Z,66.19
2019-05-02T04:49:28.280Z,66.66
2019-05-02T04:50:25.000Z,66.38
2019-05-02T04:51:20.546Z,66.19
2019-05-02T04:52:21.090Z,66.28
2019-05-02T04:53:19.126Z,66.38
2019-05-02T04:54:25.870Z,66.38
2019-05-02T04:55:25.929Z,66.56
2019-05-02T04:56:19.011Z,66.38
2019-05-02T04:57:18.961Z,66.56
2019-05-02T04:58:27.737Z,66.19
2019-05-02T04:59:22.788Z,66.76
2019-05-02T05:00:18.701Z,66.38
2019-05-02T05:01:21.049Z,66.76
2019-05-02T05:02:21.187Z,66.56
2019-05-02T05:03:21.203Z,66.56
2019-05-02T05:04:18.463Z,66.56
2019-05-02T05:05:25.698Z,66.66
2019-05-02T05:06:18.993Z,66.28
2019-05-02T05:07:18.228Z,66.38
2019-05-02T05:08:26.314Z,66.38
2019-05-02T05:09:18.160Z,66.47
2019-05-02T05:10:18.826Z,66.76
2019-05-02T05:11:21.395Z,66.38
2019-05-02T05:12:19.435Z,66.85
2019-05-02T05:13:22.724Z,66.95
2019-05-02T05:14:18.018Z,66.66
2019-05-02T05:15:33.299Z,66.76
2019-05-02T05:16:18.634Z,67.05
2019-05-02T05:17:19.862Z,67.71
2019-05-02T05:18:17.764Z,67.52
2019-05-02T05:19:17.911Z,67.52
2019-05-02T05:20:18.337Z,67.14
2019-05-02T05:21:18.082Z,67.33
2019-05-02T05:22:18.544Z,67.14
2019-05-02T05:23:21.381Z,67.05
2019-05-02T05:24:18.204Z,67.24
2019-05-02T05:25:21.239Z,67.14
2019-05-02T05:26:17.575Z,67.14
2019-05-02T05:27:18.930Z,67.24
2019-05-02T05:28:19.791Z,67.14
2019-05-02T05:29:19.403Z,67.05
2019-05-02T05:30:18.651Z,67.14
2019-05-02T05:31:24.199Z,67.33
2019-05-02T05:32:17.925Z,67.52
2019-05-02T05:33:18.300Z,67.62
2019-05-02T05:34:17.387Z,67.81
2019-05-02T05:35:17.733Z,67.81
2019-05-02T05:36:19.755Z,67.62
2019-05-02T05:37:17.232Z,67.71
2019-05-02T05:38:18.234Z,67.81
2019-05-02T05:39:17.616Z,67.62
2019-05-02T05:40:17.702Z,67.62
2019-05-02T05:41:20.167Z,67.71
2019-05-02T05:42:17.850Z,67.71
2019-05-02T05:43:20.326Z,67.81
2019-05-02T05:44:18.050Z,67.91
2019-05-02T05:45:17.381Z,67.91
2019-05-02T05:46:17.800Z,68.10
2019-05-02T05:47:17.717Z,67.71
2019-05-02T05:48:18.258Z,68.19
2019-05-02T05:49:20.059Z,68.29
2019-05-02T05:50:17.574Z,68.10
2019-05-02T05:51:17.006Z,67.71
2019-05-02T05:52:15.728Z,68.00
2019-05-02T05:53:17.208Z,67.81
2019-05-02T05:54:17.727Z,67.81
2019-05-02T05:55:20.997Z,67.91
2019-05-02T05:56:15.493Z,68.00
2019-05-02T05:57:17.387Z,68.00
2019-05-02T05:58:15.758Z,67.81
2019-05-02T05:59:17.382Z,68.00
2019-05-02T06:00:18.725Z,67.91
2019-05-02T06:01:20.117Z,68.00
2019-05-02T06:02:15.133Z,68.19
2019-05-02T06:03:15.131Z,68.10
2019-05-02T06:04:22.129Z,68.19
2019-05-02T06:05:17.064Z,68.67
2019-05-02T06:06:22.344Z,68.67
2019-05-02T06:07:14.895Z,68.57
2019-05-02T06:08:18.430Z,68.38
2019-05-02T06:09:14.775Z,68.48
2019-05-02T06:10:14.779Z,68.48
2019-05-02T06:11:19.484Z,68.76
2019-05-02T06:12:14.656Z,68.76
2019-05-02T06:13:14.539Z,68.76
2019-05-02T06:14:14.536Z,68.86
2019-05-02T06:15:14.422Z,69.05
2019-05-02T06:16:15.099Z,69.15
2019-05-02T06:17:14.301Z,68.86
2019-05-02T06:18:14.304Z,69.15
2019-05-02T06:19:17.976Z,69.05
2019-05-02T06:20:14.179Z,69.05
2019-05-02T06:21:17.002Z,69.15
2019-05-02T06:22:16.525Z,69.15
2019-05-02T06:23:14.061Z,69.15
2019-05-02T06:24:15.661Z,68.96
2019-05-02T06:25:13.949Z,69.43
2019-05-02T06:26:15.439Z,69.34
2019-05-02T06:27:13.828Z,69.34
2019-05-02T06:28:13.706Z,69.72
2019-05-02T06:29:18.813Z,69.24
2019-05-02T06:30:13.590Z,69.62
2019-05-02T06:31:15.465Z,69.34
2019-05-02T06:32:14.137Z,69.62
2019-05-02T06:33:13.465Z,69.72
2019-05-02T06:34:13.349Z,70.10
2019-05-02T06:35:17.149Z,69.72
2019-05-02T06:36:13.231Z,70.29
2019-05-02T06:37:13.940Z,69.72
2019-05-02T06:38:13.111Z,70.01
2019-05-02T06:39:13.109Z,69.72
2019-05-02T06:40:13.110Z,69.91
2019-05-02T06:41:16.147Z,70.29
2019-05-02T06:42:12.991Z,70.29
2019-05-02T06:43:12.871Z,70.58
2019-05-02T06:44:12.876Z,70.58
2019-05-02T06:45:12.755Z,70.39
2019-05-02T06:46:16.410Z,70.39
2019-05-02T06:47:12.635Z,70.39
2019-05-02T06:48:17.183Z,70.58
2019-05-02T06:49:12.516Z,70.48
2019-05-02T06:50:12.516Z,70.48
2019-05-02T06:51:19.503Z,70.20
2019-05-02T06:52:12.395Z,70.10
2019-05-02T06:53:12.279Z,70.48
2019-05-02T06:54:12.276Z,70.39
2019-05-02T06:55:12.160Z,70.39
2019-05-02T06:56:12.676Z,70.29
2019-05-02T06:57:12.160Z,70.39
2019-05-02T06:58:12.039Z,70.29
2019-05-02T06:59:13.158Z,70.29
2019-05-02T07:00:11.920Z,70.58
2019-05-02T07:01:11.919Z,70.39
2019-05-02T07:02:11.803Z,70.58
2019-05-02T07:03:11.801Z,70.48
2019-05-02T07:04:11.683Z,70.39
2019-05-02T07:05:11.685Z,70.48
2019-05-02T07:06:11.566Z,70.39
2019-05-02T07:07:13.198Z,70.39
2019-05-02T07:08:13.560Z,70.39
2019-05-02T07:09:11.634Z,70.39
2019-05-02T07:10:11.326Z,70.48
2019-05-02T07:11:11.326Z,70.39
2019-05-02T07:12:14.697Z,70.39
2019-05-02T07:13:14.613Z,70.39
2019-05-02T07:14:13.396Z,70.48
2019-05-02T07:15:11.120Z,70.58
2019-05-02T07:16:16.210Z,70.39
2019-05-02T07:17:10.972Z,70.39
2019-05-02T07:18:12.209Z,70.48
2019-05-02T07:19:10.850Z,70.48
2019-05-02T07:20:10.849Z,70.39
2019-05-02T07:21:12.140Z,70.48
2019-05-02T07:22:10.733Z,70.52
2019-05-02T07:23:15.952Z,70.33
2019-05-02T07:24:10.610Z,70.48
2019-05-02T07:25:10.494Z,70.58
2019-05-02T07:26:10.513Z,70.58
2019-05-02T07:27:10.397Z,70.52
2019-05-02T07:28:10.799Z,70.10
2019-05-02T07:29:10.255Z,70.10
2019-05-02T07:30:10.254Z,70.29
2019-05-02T07:31:11.972Z,70.04
2019-05-02T07:32:10.134Z,70.01
2019-05-02T07:33:10.136Z,69.85
2019-05-02T07:34:12.909Z,70.23
2019-05-02T07:35:10.016Z,70.20
2019-05-02T07:36:09.897Z,70.61
2019-05-02T07:37:12.543Z,70.52
2019-05-02T07:38:09.780Z,70.48
2019-05-02T07:39:09.777Z,70.42
2019-05-02T07:40:12.033Z,70.42
2019-05-02T07:41:09.658Z,70.04
2019-05-02T07:42:09.543Z,70.14
2019-05-02T07:43:13.482Z,70.42
2019-05-02T07:44:09.422Z,70.42
2019-05-02T07:45:10.742Z,70.61
2019-05-02T07:46:09.304Z,70.42
2019-05-02T07:47:09.301Z,70.04
2019-05-02T07:48:12.728Z,69.85
2019-05-02T07:49:09.183Z,69.95
2019-05-02T07:50:10.351Z,69.95
2019-05-02T07:51:09.064Z,69.85
2019-05-02T07:52:09.065Z,69.85
2019-05-02T07:53:11.410Z,69.95
2019-05-02T07:54:08.946Z,69.85
2019-05-02T07:55:10.144Z,69.85
2019-05-02T07:56:12.419Z,69.95
2019-05-02T07:57:08.709Z,70.33
2019-05-02T07:58:08.719Z,70.14
2019-05-02T07:59:08.627Z,69.56
2019-05-02T08:00:08.588Z,70.04
2019-05-02T08:01:13.309Z,69.85
2019-05-02T08:02:08.469Z,69.47
2019-05-02T08:03:08.353Z,69.66
2019-05-02T08:04:11.287Z,69.47
2019-05-02T08:05:08.960Z,69.66
2019-05-02T08:06:08.232Z,69.85
2019-05-02T08:07:08.232Z,69.85
2019-05-02T08:08:08.116Z,69.95
2019-05-02T08:09:09.199Z,69.85
2019-05-02T08:10:07.996Z,70.23
2019-05-02T08:11:07.992Z,70.42
2019-05-02T08:12:07.886Z,71.19
2019-05-02T08:13:12.120Z,70.33
2019-05-02T08:14:07.758Z,70.42
2019-05-02T08:15:13.057Z,70.33
2019-05-02T08:16:07.639Z,70.52
2019-05-02T08:17:16.076Z,70.23
2019-05-02T08:18:07.522Z,70.23
2019-05-02T08:19:07.517Z,70.42
2019-05-02T08:20:08.678Z,70.14
2019-05-02T08:21:07.398Z,70.04
2019-05-02T08:22:13.269Z,70.52
2019-05-02T08:23:07.279Z,70.42
2019-05-02T08:24:07.279Z,70.14
2019-05-02T08:25:10.410Z,70.52
2019-05-02T08:26:07.160Z,70.33
2019-05-02T08:27:07.043Z,70.33
2019-05-02T08:28:10.170Z,70.33
2019-05-02T08:29:06.925Z,70.42
2019-05-02T08:30:06.924Z,70.33
2019-05-02T08:31:06.805Z,70.52
2019-05-02T08:32:06.804Z,70.52
2019-05-02T08:33:06.687Z,70.90
2019-05-02T08:34:14.724Z,71.19
2019-05-02T08:35:06.570Z,71.28
2019-05-02T08:36:06.566Z,70.61
2019-05-02T08:37:06.450Z,71.03
2019-05-02T08:38:06.446Z,71.19
2019-05-02T08:39:06.446Z,71.09
2019-05-02T08:40:10.620Z,71.19
2019-05-02T08:41:06.328Z,70.71
2019-05-02T08:42:06.211Z,70.33
2019-05-02T08:43:08.944Z,70.42
2019-05-02T08:44:06.092Z,70.81
2019-05-02T08:45:06.090Z,70.52
2019-05-02T08:46:09.351Z,70.17
2019-05-02T08:47:17.827Z,70.46
2019-05-02T08:48:06.607Z,70.17
2019-05-02T08:49:05.852Z,70.56
2019-05-02T08:50:07.732Z,71.22
2019-05-02T08:51:05.733Z,71.70
2019-05-02T08:52:05.617Z,71.70
2019-05-02T08:53:05.613Z,71.70
2019-05-02T08:54:05.614Z,71.42
2019-05-02T08:55:09.839Z,71.70
2019-05-02T08:56:05.495Z,71.61
2019-05-02T08:57:05.378Z,71.51
2019-05-02T08:58:06.704Z,71.13
2019-05-02T08:59:05.259Z,71.70
2019-05-02T09:00:05.259Z,71.80
2019-05-02T09:01:09.281Z,71.22
2019-05-02T09:02:05.139Z,71.70
2019-05-02T09:03:05.026Z,71.80
2019-05-02T09:04:05.025Z,71.32
2019-05-02T09:05:06.046Z,71.61
2019-05-02T09:06:06.229Z,71.51
2019-05-02T09:07:04.835Z,71.22
2019-05-02T09:08:09.119Z,71.42
2019-05-02T09:09:04.781Z,71.61
2019-05-02T09:10:05.827Z,71.70
2019-05-02T09:11:04.662Z,70.84
2019-05-02T09:12:12.218Z,70.94
2019-05-02T09:13:04.543Z,71.32
2019-05-02T09:14:04.425Z,71.22
2019-05-02T09:15:04.426Z,71.22
2019-05-02T09:16:05.948Z,71.51
2019-05-02T09:17:08.077Z,71.70
2019-05-02T09:18:04.190Z,71.51
2019-05-02T09:19:04.187Z,71.13
2019-05-02T09:20:10.656Z,71.42
2019-05-02T09:21:04.067Z,70.56
2019-05-02T09:22:07.521Z,70.84
2019-05-02T09:23:03.947Z,71.51
2019-05-02T09:24:08.246Z,71.13
2019-05-02T09:25:03.835Z,71.22
2019-05-02T09:26:03.830Z,70.84
2019-05-02T09:27:03.712Z,70.75
2019-05-02T09:28:03.711Z,71.13
2019-05-02T09:29:05.427Z,71.42
2019-05-02T09:30:03.591Z,70.84
2019-05-02T09:31:06.599Z,71.22
2019-05-02T09:32:03.471Z,71.32
2019-05-02T09:33:06.606Z,70.56
2019-05-02T09:34:03.354Z,70.27
2019-05-02T09:35:06.147Z,70.36
2019-05-02T09:36:03.235Z,70.46
2019-05-02T09:37:03.123Z,70.75
2019-05-02T09:38:03.116Z,70.46
2019-05-02T09:39:03.000Z,70.46
2019-05-02T09:40:06.838Z,70.94
2019-05-02T09:41:15.392Z,70.94
2019-05-02T09:42:06.570Z,71.03
2019-05-02T09:43:04.756Z,71.32
2019-05-02T09:44:02.925Z,70.36
2019-05-02T09:45:03.187Z,70.56
2019-05-02T09:46:02.738Z,70.36
2019-05-02T09:47:02.640Z,70.17
2019-05-02T09:48:07.189Z,70.17
2019-05-02T09:49:09.007Z,70.56
2019-05-02T09:50:02.829Z,70.84
2019-05-02T09:51:04.527Z,70.36
2019-05-02T09:52:03.340Z,70.65
2019-05-02T09:53:02.285Z,70.46
2019-05-02T09:54:06.227Z,70.36
2019-05-02T09:55:02.845Z,70.56
2019-05-02T09:56:02.320Z,70.36
2019-05-02T09:57:02.797Z,71.22
2019-05-02T09:58:02.662Z,70.65
2019-05-02T09:59:10.302Z,70.65
2019-05-02T10:00:02.247Z,70.46
2019-05-02T10:01:02.135Z,70.65
2019-05-02T10:02:02.051Z,70.65
2019-05-02T10:03:02.669Z,71.45
2019-05-02T10:04:02.358Z,71.32
2019-05-02T10:05:01.925Z,70.21
2019-05-02T10:06:03.194Z,70.65
2019-05-02T10:07:02.536Z,70.50
2019-05-02T10:08:03.014Z,70.36
2019-05-02T10:09:02.782Z,71.26
2019-05-02T10:10:03.193Z,71.36
2019-05-02T10:11:02.817Z,70.27
2019-05-02T10:12:02.025Z,70.97
2019-05-02T10:13:02.757Z,70.87
2019-05-02T10:14:02.484Z,71.55
2019-05-02T10:15:02.313Z,70.97
2019-05-02T10:16:02.090Z,70.78
2019-05-02T10:17:03.093Z,71.16
2019-05-02T10:18:08.754Z,71.45
2019-05-02T10:19:09.403Z,71.07
2019-05-02T10:20:02.060Z,71.26
2019-05-02T10:21:02.797Z,71.16
2019-05-02T10:22:01.929Z,71.26
2019-05-02T10:23:02.279Z,71.07
2019-05-02T10:24:01.854Z,71.16
2019-05-02T10:25:02.433Z,71.83
2019-05-02T10:26:02.696Z,71.16
2019-05-02T10:27:04.289Z,70.97
2019-05-02T10:28:02.202Z,71.16
2019-05-02T10:29:02.059Z,71.26
2019-05-02T10:30:08.463Z,71.26
2019-05-02T10:31:02.092Z,70.97
2019-05-02T10:32:01.793Z,71.36
2019-05-02T10:33:00.026Z,71.36
2019-05-02T10:34:02.222Z,71.07
2019-05-02T10:35:01.996Z,71.16
2019-05-02T10:35:59.904Z,71.36
2019-05-02T10:37:01.094Z,70.68
2019-05-02T10:37:59.784Z,71.55
2019-05-02T10:39:01.643Z,70.87
2019-05-02T10:39:59.667Z,71.16
2019-05-02T10:41:02.617Z,71.36
2019-05-02T10:41:59.550Z,71.36
2019-05-02T10:42:59.549Z,71.16
2019-05-02T10:43:59.687Z,71.73
2019-05-02T10:44:59.428Z,71.07
2019-05-02T10:45:59.312Z,71.07
2019-05-02T10:46:59.308Z,71.16
2019-05-02T10:47:59.191Z,71.26
2019-05-02T10:48:59.190Z,71.36
2019-05-02T10:49:59.074Z,71.83
2019-05-02T10:50:59.070Z,72.50
2019-05-02T10:51:58.956Z,72.79
2019-05-02T10:53:03.555Z,72.60
2019-05-02T10:53:58.953Z,72.83
2019-05-02T10:54:58.835Z,72.69
2019-05-02T10:55:58.833Z,72.63
2019-05-02T10:56:58.716Z,72.54
2019-05-02T10:57:58.716Z,72.92
2019-05-02T10:58:58.601Z,73.30
2019-05-02T10:59:58.595Z,73.02
2019-05-02T11:00:58.478Z,72.63
2019-05-02T11:01:58.476Z,72.54
2019-05-02T11:02:58.359Z,71.77
2019-05-02T11:03:58.357Z,72.06
2019-05-02T11:04:58.240Z,71.77
2019-05-02T11:06:05.626Z,71.87
2019-05-02T11:06:58.242Z,71.58
2019-05-02T11:08:04.602Z,71.77
2019-05-02T11:08:58.122Z,71.39
2019-05-02T11:10:05.059Z,71.87
2019-05-02T11:10:57.999Z,71.97
2019-05-02T11:11:57.884Z,71.77
2019-05-02T11:12:57.881Z,71.62
2019-05-02T11:14:00.726Z,71.33
2019-05-02T11:14:57.763Z,71.04
2019-05-02T11:15:57.646Z,70.66
2019-05-02T11:16:57.642Z,70.56
2019-05-02T11:17:57.528Z,70.56
2019-05-02T11:18:57.524Z,70.18
2019-05-02T11:19:57.525Z,70.66
2019-05-02T11:20:59.097Z,70.66
2019-05-02T11:21:59.133Z,70.09
2019-05-02T11:22:57.288Z,69.99
2019-05-02T11:23:57.444Z,70.09
2019-05-02T11:24:57.173Z,70.09
2019-05-02T11:25:57.168Z,70.18
2019-05-02T11:26:57.051Z,69.89
2019-05-02T11:27:57.275Z,70.28
2019-05-02T11:28:56.933Z,69.99
2019-05-02T11:29:56.929Z,70.47
2019-05-02T11:30:57.145Z,70.09
2019-05-02T11:31:56.810Z,70.18
2019-05-02T11:32:56.812Z,70.18
2019-05-02T11:33:56.693Z,70.18
2019-05-02T11:34:56.692Z,70.18
2019-05-02T11:35:56.575Z,70.18
2019-05-02T11:36:56.579Z,69.99
2019-05-02T11:37:56.457Z,69.99
2019-05-02T11:39:09.380Z,70.15
2019-05-02T11:40:00.044Z,70.43
2019-05-02T11:40:56.334Z,70.66
2019-05-02T11:41:56.218Z,70.37
2019-05-02T11:42:57.228Z,70.47
2019-05-02T11:43:56.216Z,70.62
2019-05-02T11:44:56.100Z,70.66
2019-05-02T11:46:02.541Z,70.62
2019-05-02T11:46:55.981Z,70.66
2019-05-02T11:47:56.248Z,70.37
2019-05-02T11:48:58.567Z,70.56
2019-05-02T11:49:56.106Z,70.37
2019-05-02T11:50:58.086Z,70.37
2019-05-02T11:51:57.227Z,70.62
2019-05-02T11:52:55.638Z,70.66
2019-05-02T11:53:59.299Z,70.66
2019-05-02T11:54:55.504Z,70.53
2019-05-02T11:55:58.435Z,70.24
2019-05-02T11:56:55.503Z,70.24
2019-05-02T11:57:55.385Z,70.56
2019-05-02T11:58:55.383Z,70.37
2019-05-02T11:59:59.381Z,70.56
2019-05-02T12:00:55.264Z,70.53
2019-05-02T12:01:59.368Z,70.28
2019-05-02T12:02:58.080Z,70.28
2019-05-02T12:03:55.029Z,70.28
2019-05-02T12:04:55.643Z,70.28
2019-05-02T12:05:54.910Z,70.34
2019-05-02T12:07:01.027Z,70.47
2019-05-02T12:07:54.791Z,70.56
2019-05-02T12:08:54.788Z,70.18
2019-05-02T12:09:57.064Z,70.56
2019-05-02T12:10:54.671Z,70.53
2019-05-02T12:11:56.657Z,70.56
2019-05-02T12:12:54.554Z,70.56
2019-05-02T12:13:57.003Z,70.56
2019-05-02T12:14:54.435Z,70.66
2019-05-02T12:15:54.442Z,70.56
2019-05-02T12:16:54.315Z,70.47
2019-05-02T12:17:54.313Z,70.47
2019-05-02T12:19:07.912Z,70.66
2019-05-02T12:19:54.195Z,70.37
2019-05-02T12:20:54.205Z,70.37
2019-05-02T12:21:54.077Z,70.66
2019-05-02T12:22:54.075Z,70.85
2019-05-02T12:23:53.977Z,70.18
2019-05-02T12:24:53.963Z,70.18
2019-05-02T12:25:53.845Z,70.18
2019-05-02T12:26:53.839Z,69.89
2019-05-02T12:27:53.720Z,69.70
2019-05-02T12:28:53.717Z,69.80
2019-05-02T12:29:57.789Z,69.70
2019-05-02T12:30:53.599Z,69.51
2019-05-02T12:31:56.411Z,69.51
2019-05-02T12:32:53.487Z,69.60
2019-05-02T12:33:53.481Z,69.51
2019-05-02T12:34:53.366Z,69.60
2019-05-02T12:35:53.362Z,69.80
2019-05-02T12:36:53.282Z,69.99
2019-05-02T12:37:55.214Z,69.60
2019-05-02T12:38:53.127Z,69.60
2019-05-02T12:39:53.124Z,69.60
2019-05-02T12:40:53.015Z,69.99
2019-05-02T12:41:53.803Z,69.60
2019-05-02T12:42:52.891Z,69.42
2019-05-02T12:43:52.885Z,70.18
2019-05-02T12:44:53.331Z,69.42
2019-05-02T12:45:53.033Z,69.51
2019-05-02T12:46:52.769Z,69.80
2019-05-02T12:47:52.654Z,70.18
2019-05-02T12:48:52.649Z,69.60
2019-05-02T12:49:52.534Z,69.89
2019-05-02T12:50:52.889Z,69.80
2019-05-02T12:51:52.619Z,69.99